Terminal Aerodrome Forecast
Issued by NWS

Home | Current Version | Previous Version | Text Only | Print | Product List | Glossary On
Versions: 1 2 3 4 5 6 7 8 9 10 11 12 13 14 15
000
FTUS43 KIND 200500
TAFBMG
TAF
KBMG 200524Z 2006/2106 VRB03KT P6SM OVC025
     FM201600 VRB03KT P6SM BKN020 OVC060
     FM210100 12002KT P6SM BKN030 OVC080
      AMD LTD TO CLD VIS AND WIND TIL 201400=

USA.gov is the U.S. government's official web portal to all federal, state and local government web resources and services.